Time;durP1;ratioP1;P1;durP2;ratioP2;P2;SDS_P1;SDS_P2;PMS_P1;PMS_P2;Temp;Humidity;BMP_temperature;BMP_pressure;BME280_temperature;BME280_humidity;BME280_pressure;Samples;Min_cycle;Max_cycle;Signal;HPM_P1;HPM_P2
2021/12/24 00:01:11;;;;;;;25.30;12.70;;;;;;;;;;4999791;28;20513;-68
2021/12/24 00:03:39;;;;;;;23.98;13.13;;;;;;;;;;4988029;28;20068;-69
2021/12/24 00:06:09;;;;;;;24.25;12.07;;;;;;;;;;4998168;28;20069;-69
2021/12/24 00:08:38;;;;;;;24.77;12.57;;;;;;;;;;5015926;28;20112;-68
2021/12/24 00:11:10;;;;;;;23.73;11.48;;;;;;;;;;4984644;28;20127;-69
2021/12/24 00:13:45;;;;;;;20.67;11.35;;;;;;;;;;4999027;28;20036;-69
2021/12/24 00:16:26;;;;;;;23.02;10.63;;;;;;;;;;5015547;28;20032;-68
2021/12/24 00:19:15;;;;;;;23.15;10.93;;;;;;;;;;5019013;28;20210;-68
2021/12/24 00:35:47;;;;;;;24.85;11.38;;;;;;;;;;4928871;28;20061;-69
2021/12/24 00:38:15;;;;;;;20.05;10.45;;;;;;;;;;4934148;28;20027;-70
2021/12/24 00:40:45;;;;;;;20.48;9.95;;;;;;;;;;4931370;28;20050;-69
2021/12/24 00:43:14;;;;;;;19.75;9.80;;;;;;;;;;4916739;28;20146;-72
2021/12/24 00:45:43;;;;;;;20.65;10.23;;;;;;;;;;4913837;28;20138;-69
2021/12/24 00:48:14;;;;;;;18.05;8.70;;;;;;;;;;4917224;28;20035;-69
2021/12/24 00:56:12;;;;;;;20.23;9.95;;;;;;;;;;4915840;28;20039;-69
2021/12/24 00:58:43;;;;;;;22.90;9.90;;;;;;;;;;4928210;28;20157;-71
2021/12/24 01:01:11;;;;;;;18.77;9.30;;;;;;;;;;4904986;28;20765;-70
2021/12/24 01:03:38;;;;;;;22.08;12.23;;;;;;;;;;4900865;28;20034;-69
2021/12/24 01:06:06;;;;;;;24.63;12.65;;;;;;;;;;4974430;28;20033;-69
2021/12/24 01:08:35;;;;;;;23.52;10.90;;;;;;;;;;4960677;28;20021;-69
2021/12/24 01:11:04;;;;;;;20.63;10.02;;;;;;;;;;4977729;28;20808;-70
2021/12/24 01:13:33;;;;;;;20.73;9.10;;;;;;;;;;4995919;28;20025;-69
2021/12/24 01:16:08;;;;;;;20.30;9.85;;;;;;;;;;4978563;28;20033;-69
2021/12/24 01:24:05;;;;;;;16.70;9.27;;;;;;;;;;5019456;28;20043;-69
2021/12/24 01:29:45;;;;;;;18.23;9.63;;;;;;;;;;5018258;28;20071;-69
2021/12/24 01:37:57;;;;;;;17.00;9.32;;;;;;;;;;4990013;28;21342;-69
2021/12/24 01:43:19;;;;;;;20.30;9.27;;;;;;;;;;4984087;28;20160;-69
2021/12/24 01:45:47;;;;;;;19.80;9.85;;;;;;;;;;4976949;28;20287;-70
2021/12/24 01:48:16;;;;;;;22.60;9.70;;;;;;;;;;4995371;28;20688;-69
2021/12/24 01:50:49;;;;;;;22.02;10.45;;;;;;;;;;4990913;28;20029;-70
2021/12/24 01:53:20;;;;;;;21.52;9.68;;;;;;;;;;4993641;28;20084;-71
2021/12/24 01:55:50;;;;;;;22.13;10.35;;;;;;;;;;4991879;28;20328;-70
2021/12/24 01:58:25;;;;;;;24.67;10.90;;;;;;;;;;4999330;28;20045;-70
2021/12/24 02:00:55;;;;;;;18.85;9.77;;;;;;;;;;4992554;28;20784;-70
2021/12/24 02:03:23;;;;;;;18.90;10.43;;;;;;;;;;4981239;28;20809;-70
2021/12/24 02:05:50;;;;;;;19.95;10.18;;;;;;;;;;4992434;28;20029;-70
2021/12/24 02:08:19;;;;;;;22.02;10.65;;;;;;;;;;5014350;28;20021;-70
2021/12/24 02:10:46;;;;;;;21.23;9.85;;;;;;;;;;4986882;28;20056;-69
2021/12/24 02:13:14;;;;;;;24.73;10.32;;;;;;;;;;5001391;28;20025;-71
2021/12/24 02:16:13;;;;;;;23.70;9.55;;;;;;;;;;4983032;28;20029;-70
2021/12/24 02:28:17;;;;;;;22.85;9.40;;;;;;;;;;5004437;28;20053;-70
2021/12/24 02:29:53;;;;;;;19.55;9.13;;;;;;;;;;5012568;28;20068;-70
2021/12/24 02:32:22;;;;;;;20.08;9.07;;;;;;;;;;4998230;28;20392;-70
2021/12/24 02:34:48;;;;;;;22.60;8.90;;;;;;;;;;5015076;28;20033;-70
2021/12/24 02:37:15;;;;;;;21.23;9.05;;;;;;;;;;4998171;28;20032;-70
2021/12/24 02:39:41;;;;;;;23.75;8.18;;;;;;;;;;5014519;28;20104;-70
2021/12/24 02:42:24;;;;;;;16.92;8.32;;;;;;;;;;4999012;28;20032;-70
2021/12/24 02:44:51;;;;;;;18.38;7.47;;;;;;;;;;5012292;28;20033;-70
2021/12/24 02:55:14;;;;;;;19.95;8.25;;;;;;;;;;4968333;28;20037;-68
2021/12/24 02:57:41;;;;;;;18.70;7.80;;;;;;;;;;4946227;28;20029;-71
2021/12/24 03:00:19;;;;;;;17.77;7.65;;;;;;;;;;4955795;28;20060;-71
2021/12/24 03:02:49;;;;;;;20.88;8.02;;;;;;;;;;4952874;28;20522;-71
2021/12/24 03:05:16;;;;;;;21.05;8.70;;;;;;;;;;4969496;28;20460;-71
2021/12/24 03:07:44;;;;;;;16.52;7.88;;;;;;;;;;4964497;28;20021;-68
2021/12/24 03:10:14;;;;;;;19.75;8.15;;;;;;;;;;4951037;28;21184;-68
2021/12/24 03:12:44;;;;;;;19.08;8.82;;;;;;;;;;4965824;28;20041;-69
2021/12/24 03:15:11;;;;;;;17.55;8.00;;;;;;;;;;4965950;28;20041;-69
2021/12/24 03:17:37;;;;;;;18.20;9.13;;;;;;;;;;4929788;28;20052;-68
2021/12/24 03:20:09;;;;;;;15.00;7.75;;;;;;;;;;4967221;28;20111;-69
2021/12/24 03:23:03;;;;;;;19.27;8.90;;;;;;;;;;4950899;28;20078;-69
2021/12/24 03:25:31;;;;;;;21.15;8.57;;;;;;;;;;4947156;28;20051;-69
2021/12/24 03:27:59;;;;;;;18.85;8.35;;;;;;;;;;5001209;28;20094;-69
2021/12/24 03:30:36;;;;;;;20.13;8.40;;;;;;;;;;4997803;28;20074;-69
2021/12/24 03:33:03;;;;;;;16.67;8.23;;;;;;;;;;5016547;28;20072;-71
2021/12/24 03:35:32;;;;;;;19.17;8.40;;;;;;;;;;4981816;28;20041;-70
2021/12/24 03:37:58;;;;;;;18.27;8.18;;;;;;;;;;5016469;28;20075;-68
2021/12/24 03:40:29;;;;;;;17.10;8.30;;;;;;;;;;5018020;28;20059;-69
2021/12/24 03:42:56;;;;;;;17.02;8.02;;;;;;;;;;4997906;28;20044;-70
2021/12/24 03:45:34;;;;;;;17.60;8.23;;;;;;;;;;5015517;28;20099;-70
2021/12/24 03:48:15;;;;;;;16.67;8.60;;;;;;;;;;5018900;28;20156;-72
2021/12/24 03:56:18;;;;;;;17.58;7.95;;;;;;;;;;5017725;28;20116;-70
2021/12/24 03:58:46;;;;;;;17.20;8.13;;;;;;;;;;5012756;28;20039;-70
2021/12/24 04:01:13;;;;;;;22.10;8.93;;;;;;;;;;5015143;28;20138;-70
2021/12/24 04:03:42;;;;;;;15.05;7.97;;;;;;;;;;5014445;28;20047;-68
2021/12/24 04:06:10;;;;;;;16.98;8.77;;;;;;;;;;5016038;28;20128;-68
2021/12/24 04:08:37;;;;;;;18.85;9.43;;;;;;;;;;5013816;28;20021;-68
2021/12/24 04:11:05;;;;;;;19.70;9.15;;;;;;;;;;4998368;28;20037;-68
2021/12/24 04:13:55;;;;;;;18.98;9.35;;;;;;;;;;4992923;28;20034;-71
2021/12/24 04:16:23;;;;;;;22.45;10.20;;;;;;;;;;5017642;28;20033;-70
2021/12/24 04:19:17;;;;;;;21.80;9.93;;;;;;;;;;4996053;28;20051;-71
2021/12/24 04:27:17;;;;;;;19.15;8.90;;;;;;;;;;5015816;28;20052;-70
2021/12/24 04:29:44;;;;;;;21.58;10.88;;;;;;;;;;5009235;28;20037;-68
2021/12/24 04:32:16;;;;;;;;;;;;;;;;;;4997525;28;20040;-71
2021/12/24 04:34:49;;;;;;;18.95;9.07;;;;;;;;;;4995798;28;19913;-70
2021/12/24 04:51:00;;;;;;;17.10;10.02;;;;;;;;;;4999974;28;20755;-71
2021/12/24 04:51:33;;;;;;;20.05;10.93;;;;;;;;;;5014199;28;20164;-68
2021/12/24 05:04:50;;;;;;;;;;;;;;;;;;5017352;28;20755;-69
2021/12/24 05:08:14;;;;;;;24.90;11.15;;;;;;;;;;5019894;28;20404;-68
2021/12/24 05:10:09;;;;;;;20.75;10.48;;;;;;;;;;4984797;28;20069;-68
2021/12/24 05:12:36;;;;;;;24.50;11.40;;;;;;;;;;5014909;28;20130;-68
2021/12/24 05:15:07;;;;;;;22.55;10.52;;;;;;;;;;4999068;28;20766;-68
2021/12/24 05:23:08;;;;;;;24.92;12.45;;;;;;;;;;4965379;28;20132;-68
2021/12/24 05:25:38;;;;;;;21.35;11.18;;;;;;;;;;4971915;28;20649;-68
2021/12/24 05:28:09;;;;;;;19.48;10.32;;;;;;;;;;4974248;28;20057;-69
2021/12/24 05:30:35;;;;;;;19.17;10.35;;;;;;;;;;4970707;28;20185;-69
2021/12/24 05:33:03;;;;;;;;;;;;;;;;;;4954574;28;20217;-69
2021/12/24 05:35:29;;;;;;;19.60;10.38;;;;;;;;;;4970542;28;19914;-69
2021/12/24 05:37:56;;;;;;;18.20;9.55;;;;;;;;;;4955859;28;20121;-68
2021/12/24 05:40:25;;;;;;;18.25;9.82;;;;;;;;;;4972868;28;20072;-69
2021/12/24 05:42:52;;;;;;;18.15;9.95;;;;;;;;;;4972025;28;20042;-70
2021/12/24 05:45:19;;;;;;;;;;;;;;;;;;4975254;28;20045;-71
2021/12/24 05:47:46;;;;;;;19.58;9.70;;;;;;;;;;4967933;28;19914;-68
2021/12/24 05:50:13;;;;;;;23.58;10.75;;;;;;;;;;4971325;28;20042;-70
2021/12/24 05:52:40;;;;;;;21.67;9.98;;;;;;;;;;4965510;28;20601;-69
2021/12/24 05:55:07;;;;;;;18.17;10.05;;;;;;;;;;4955910;28;20041;-68
2021/12/24 05:57:35;;;;;;;20.45;10.02;;;;;;;;;;4992565;28;20036;-68
2021/12/24 06:00:05;;;;;;;20.25;10.77;;;;;;;;;;4984198;28;20036;-69
2021/12/24 06:02:35;;;;;;;21.15;10.50;;;;;;;;;;5000546;28;20029;-68
2021/12/24 06:05:06;;;;;;;21.42;10.40;;;;;;;;;;5018403;28;20037;-68
2021/12/24 06:07:34;;;;;;;21.50;9.93;;;;;;;;;;5015596;28;20075;-68
2021/12/24 06:10:02;;;;;;;20.60;11.73;;;;;;;;;;5000612;28;20566;-68
2021/12/24 06:12:31;;;;;;;23.70;10.15;;;;;;;;;;4965540;28;20136;-69
2021/12/24 06:15:04;;;;;;;22.92;11.52;;;;;;;;;;5001055;28;20132;-68
2021/12/24 06:17:31;;;;;;;19.92;10.75;;;;;;;;;;5011239;28;20048;-68
2021/12/24 06:20:00;;;;;;;20.77;9.63;;;;;;;;;;4982255;28;20063;-69
2021/12/24 06:22:27;;;;;;;18.10;8.93;;;;;;;;;;4994432;28;20090;-69
2021/12/24 06:24:54;;;;;;;18.20;9.13;;;;;;;;;;5012825;28;20044;-69
2021/12/24 06:27:21;;;;;;;18.10;9.85;;;;;;;;;;5015105;28;20501;-69
2021/12/24 06:29:50;;;;;;;16.85;8.80;;;;;;;;;;4993810;28;20081;-69
2021/12/24 06:32:18;;;;;;;21.85;10.18;;;;;;;;;;5014361;28;20039;-69
2021/12/24 06:34:44;;;;;;;18.20;9.73;;;;;;;;;;5013516;28;20036;-70
2021/12/24 06:37:11;;;;;;;;;;;;;;;;;;5002412;28;20094;-69
2021/12/24 06:39:39;;;;;;;19.95;9.70;;;;;;;;;;5014815;28;20020;-69
2021/12/24 06:42:06;;;;;;;18.52;9.05;;;;;;;;;;5007348;28;20052;-69
2021/12/24 06:44:34;;;;;;;21.38;8.82;;;;;;;;;;4985105;28;20037;-69
2021/12/24 06:47:03;;;;;;;19.08;9.70;;;;;;;;;;5008092;28;20021;-69
2021/12/24 06:49:40;;;;;;;21.25;9.65;;;;;;;;;;4999791;28;20082;-69
2021/12/24 06:52:09;;;;;;;20.67;9.43;;;;;;;;;;5016106;28;20646;-69
2021/12/24 06:54:39;;;;;;;19.52;9.20;;;;;;;;;;5004343;28;20021;-70
2021/12/24 06:57:12;;;;;;;;;;;;;;;;;;5020076;28;20099;-69
2021/12/24 06:59:42;;;;;;;21.58;9.52;;;;;;;;;;5011119;28;19928;-69
2021/12/24 07:02:14;;;;;;;20.80;9.75;;;;;;;;;;5007870;28;20356;-69
2021/12/24 07:04:43;;;;;;;20.73;9.40;;;;;;;;;;5011340;28;20550;-68
2021/12/24 07:07:11;;;;;;;22.40;9.80;;;;;;;;;;5017885;28;20036;-69
2021/12/24 07:09:42;;;;;;;16.83;8.13;;;;;;;;;;5013853;28;20029;-69
2021/12/24 07:12:15;;;;;;;18.80;10.27;;;;;;;;;;4998016;28;20042;-69
2021/12/24 07:14:42;;;;;;;18.67;8.95;;;;;;;;;;5007441;28;20044;-69
2021/12/24 07:17:10;;;;;;;24.23;10.38;;;;;;;;;;4984980;28;20053;-70
2021/12/24 07:19:39;;;;;;;19.75;11.18;;;;;;;;;;4995332;28;20063;-70
2021/12/24 07:22:08;;;;;;;23.60;13.20;;;;;;;;;;5016181;28;20028;-70
2021/12/24 07:24:37;;;;;;;26.23;15.82;;;;;;;;;;5016198;28;20091;-69
2021/12/24 07:27:07;;;;;;;21.60;15.52;;;;;;;;;;4998068;28;20731;-70
2021/12/24 07:29:39;;;;;;;25.60;16.27;;;;;;;;;;5015903;28;20032;-69
2021/12/24 07:32:09;;;;;;;25.95;16.48;;;;;;;;;;4998564;28;20059;-70
2021/12/24 07:34:38;;;;;;;24.67;15.85;;;;;;;;;;4997356;28;20040;-69
2021/12/24 07:37:06;;;;;;;25.20;15.98;;;;;;;;;;5000888;28;20158;-69
2021/12/24 07:39:35;;;;;;;23.65;16.73;;;;;;;;;;4995238;28;20060;-69
2021/12/24 07:42:02;;;;;;;25.60;17.15;;;;;;;;;;5001527;28;20040;-70
2021/12/24 07:44:33;;;;;;;23.45;15.40;;;;;;;;;;5011329;28;20055;-70
2021/12/24 07:47:01;;;;;;;23.20;15.18;;;;;;;;;;5018154;28;20415;-69
2021/12/24 07:49:37;;;;;;;20.40;13.85;;;;;;;;;;5017140;28;20047;-70
2021/12/24 07:52:08;;;;;;;25.38;14.60;;;;;;;;;;5015913;28;20135;-70
2021/12/24 07:54:47;;;;;;;20.52;13.07;;;;;;;;;;4997480;28;20043;-69
2021/12/24 07:57:14;;;;;;;18.97;11.70;;;;;;;;;;4997647;28;20033;-69
2021/12/24 07:59:44;;;;;;;18.00;11.07;;;;;;;;;;5013028;28;20024;-69
2021/12/24 08:02:14;;;;;;;21.52;12.07;;;;;;;;;;5001623;28;20308;-69
2021/12/24 08:04:43;;;;;;;20.65;11.77;;;;;;;;;;4994039;28;20037;-71
2021/12/24 08:07:10;;;;;;;19.13;11.10;;;;;;;;;;5017528;28;20083;-70
2021/12/24 08:09:39;;;;;;;21.20;10.25;;;;;;;;;;4997872;28;20156;-70
2021/12/24 08:12:20;;;;;;;25.42;12.98;;;;;;;;;;4995343;28;20490;-70
2021/12/24 08:14:48;;;;;;;23.35;11.18;;;;;;;;;;5016168;28;21382;-69
2021/12/24 08:17:16;;;;;;;22.13;11.27;;;;;;;;;;4996077;28;20034;-68
2021/12/24 08:19:42;;;;;;;21.35;10.68;;;;;;;;;;4986904;28;20042;-71
2021/12/24 08:22:10;;;;;;;19.33;11.05;;;;;;;;;;4967158;28;20825;-71
2021/12/24 08:24:39;;;;;;;16.50;10.13;;;;;;;;;;4983836;28;20049;-70
2021/12/24 08:27:08;;;;;;;18.45;10.63;;;;;;;;;;4990371;28;20790;-70
2021/12/24 08:29:36;;;;;;;20.77;12.18;;;;;;;;;;4970098;28;20033;-71
2021/12/24 08:32:05;;;;;;;23.23;13.90;;;;;;;;;;4992612;28;20045;-70
2021/12/24 08:34:33;;;;;;;19.83;13.18;;;;;;;;;;4974978;28;20313;-69
2021/12/24 08:37:04;;;;;;;19.15;12.40;;;;;;;;;;4975964;28;20033;-70
2021/12/24 08:39:33;;;;;;;22.90;15.90;;;;;;;;;;4974711;28;20044;-68
2021/12/24 08:42:01;;;;;;;21.65;13.13;;;;;;;;;;4996999;28;20124;-70
2021/12/24 08:44:29;;;;;;;19.55;10.90;;;;;;;;;;4992844;28;20061;-70
2021/12/24 08:46:57;;;;;;;23.35;12.18;;;;;;;;;;4989257;28;20029;-71
2021/12/24 08:49:26;;;;;;;20.42;12.15;;;;;;;;;;4993416;28;20029;-70
2021/12/24 08:51:56;;;;;;;22.02;13.32;;;;;;;;;;4977732;28;20040;-71
2021/12/24 08:54:27;;;;;;;16.92;10.68;;;;;;;;;;4991343;28;20026;-70
2021/12/24 08:56:55;;;;;;;19.08;10.38;;;;;;;;;;4983209;28;20073;-70
2021/12/24 08:59:23;;;;;;;15.75;8.15;;;;;;;;;;4970074;28;20032;-70
2021/12/24 09:01:52;;;;;;;16.85;8.57;;;;;;;;;;4975588;28;20144;-71
2021/12/24 09:04:22;;;;;;;14.60;8.77;;;;;;;;;;4989001;28;20064;-70
2021/12/24 09:06:48;;;;;;;14.40;8.45;;;;;;;;;;4977237;28;20045;-71
2021/12/24 09:09:16;;;;;;;14.55;8.60;;;;;;;;;;4990477;28;20034;-68
2021/12/24 09:11:47;;;;;;;17.55;10.02;;;;;;;;;;4991474;28;20029;-71
2021/12/24 09:14:18;;;;;;;20.95;12.55;;;;;;;;;;4980248;28;20141;-70
2021/12/24 09:16:49;;;;;;;17.40;10.95;;;;;;;;;;4963210;28;20029;-71
2021/12/24 09:19:23;;;;;;;17.58;10.32;;;;;;;;;;5015533;28;20136;-71
2021/12/24 09:21:55;;;;;;;14.75;9.48;;;;;;;;;;4998479;28;20037;-70
2021/12/24 09:24:24;;;;;;;17.58;10.45;;;;;;;;;;5002215;28;20040;-70
2021/12/24 09:26:56;;;;;;;17.70;10.68;;;;;;;;;;4982831;28;20033;-70
2021/12/24 09:29:25;;;;;;;19.52;11.82;;;;;;;;;;5019421;28;20541;-71
2021/12/24 09:31:53;;;;;;;18.58;11.23;;;;;;;;;;4998499;28;20033;-70
2021/12/24 09:34:22;;;;;;;20.90;12.60;;;;;;;;;;5019496;28;20135;-70
2021/12/24 09:36:49;;;;;;;19.80;12.40;;;;;;;;;;4999065;28;20038;-70
2021/12/24 09:39:15;;;;;;;;;;;;;;;;;;5016749;28;20029;-71
2021/12/24 09:41:42;;;;;;;25.70;16.23;;;;;;;;;;5008891;28;19955;-68
2021/12/24 09:44:09;;;;;;;20.17;11.88;;;;;;;;;;4983772;28;20829;-68
2021/12/24 09:46:42;;;;;;;16.55;10.40;;;;;;;;;;5014111;28;20056;-68
2021/12/24 09:49:12;;;;;;;17.23;9.55;;;;;;;;;;5017988;28;20039;-70
2021/12/24 09:51:41;;;;;;;19.88;13.60;;;;;;;;;;4981168;28;20044;-70
2021/12/24 09:54:13;;;;;;;19.85;12.77;;;;;;;;;;5019818;28;20119;-70
2021/12/24 09:56:40;;;;;;;18.33;12.07;;;;;;;;;;4996391;28;21225;-68
2021/12/24 09:59:10;;;;;;;17.67;10.52;;;;;;;;;;5015838;28;20667;-68
2021/12/24 10:01:39;;;;;;;15.80;9.27;;;;;;;;;;4983306;28;20037;-68
2021/12/24 10:04:17;;;;;;;17.30;9.48;;;;;;;;;;5011138;28;20028;-69
2021/12/24 10:06:59;;;;;;;16.00;8.68;;;;;;;;;;4998585;28;20110;-69
2021/12/24 10:09:39;;;;;;;16.77;8.68;;;;;;;;;;5013013;28;20033;-68
2021/12/24 10:12:18;;;;;;;17.05;8.35;;;;;;;;;;5013299;28;20037;-69
2021/12/24 10:14:52;;;;;;;19.75;9.80;;;;;;;;;;4987964;28;20029;-69
2021/12/24 10:17:23;;;;;;;14.88;7.30;;;;;;;;;;5006528;28;20045;-69
2021/12/24 10:19:55;;;;;;;15.02;7.25;;;;;;;;;;4989734;28;20041;-69
2021/12/24 10:22:23;;;;;;;16.80;7.88;;;;;;;;;;5007579;28;20036;-69
2021/12/24 10:25:12;;;;;;;15.20;6.20;;;;;;;;;;4975156;28;20072;-69
2021/12/24 10:27:40;;;;;;;15.32;6.53;;;;;;;;;;5011653;28;20051;-63
2021/12/24 10:30:21;;;;;;;14.63;6.60;;;;;;;;;;4994695;28;20041;-64
2021/12/24 10:32:50;;;;;;;15.32;7.20;;;;;;;;;;4982455;28;20043;-68
2021/12/24 10:35:31;;;;;;;15.00;6.82;;;;;;;;;;5016059;28;20056;-69
2021/12/24 10:38:16;;;;;;;13.90;5.97;;;;;;;;;;4993048;28;20036;-69
2021/12/24 10:40:59;;;;;;;14.35;5.40;;;;;;;;;;5006990;28;20044;-69
2021/12/24 10:43:31;;;;;;;13.63;5.30;;;;;;;;;;5015760;28;20061;-68
2021/12/24 10:46:15;;;;;;;14.43;5.47;;;;;;;;;;5004024;28;20029;-71
2021/12/24 10:49:01;;;;;;;14.00;5.25;;;;;;;;;;5005472;28;20028;-70
2021/12/24 10:57:38;;;;;;;13.10;5.07;;;;;;;;;;4964576;28;20040;-69
2021/12/24 11:00:29;;;;;;;13.65;5.75;;;;;;;;;;4955605;28;20499;-69
2021/12/24 11:03:06;;;;;;;15.48;6.03;;;;;;;;;;4969009;28;20467;-69
2021/12/24 11:05:33;;;;;;;13.35;6.85;;;;;;;;;;4971981;28;20671;-70
2021/12/24 11:08:03;;;;;;;15.38;6.50;;;;;;;;;;4976424;28;20168;-70
2021/12/24 11:10:43;;;;;;;16.10;7.90;;;;;;;;;;4919610;28;20034;-70
2021/12/24 11:13:13;;;;;;;13.43;6.38;;;;;;;;;;4917258;28;20228;-70
2021/12/24 11:15:46;;;;;;;15.30;7.93;;;;;;;;;;4931553;28;20042;-70
2021/12/24 11:18:26;;;;;;;15.57;8.15;;;;;;;;;;4931673;28;20050;-70
2021/12/24 11:20:56;;;;;;;15.57;8.23;;;;;;;;;;4920776;28;20082;-70
2021/12/24 11:23:24;;;;;;;16.75;8.98;;;;;;;;;;4936771;28;20046;-69
2021/12/24 11:25:54;;;;;;;20.85;9.77;;;;;;;;;;4931161;28;21133;-68
2021/12/24 11:28:26;;;;;;;15.63;6.60;;;;;;;;;;4921955;28;20023;-69
2021/12/24 11:31:02;;;;;;;13.95;6.60;;;;;;;;;;4950888;28;20042;-70
2021/12/24 11:33:30;;;;;;;13.27;7.57;;;;;;;;;;4949237;28;20026;-69
2021/12/24 11:35:59;;;;;;;13.48;7.20;;;;;;;;;;4940937;28;20039;-67
2021/12/24 11:38:36;;;;;;;15.00;7.00;;;;;;;;;;4940775;28;20132;-71
2021/12/24 11:41:07;;;;;;;14.05;6.43;;;;;;;;;;4955468;28;20061;-68
2021/12/24 11:43:39;;;;;;;14.45;6.55;;;;;;;;;;4951598;28;20531;-69
2021/12/24 11:46:09;;;;;;;15.40;6.40;;;;;;;;;;4936722;28;20066;-69
2021/12/24 11:48:38;;;;;;;14.10;6.82;;;;;;;;;;4940796;28;20205;-69
2021/12/24 11:51:16;;;;;;;13.88;6.75;;;;;;;;;;4952264;28;20038;-69
2021/12/24 11:53:45;;;;;;;14.50;6.93;;;;;;;;;;4950139;28;20109;-69
2021/12/24 11:56:16;;;;;;;14.35;6.18;;;;;;;;;;4908679;28;20532;-70
2021/12/24 11:58:44;;;;;;;12.65;6.85;;;;;;;;;;4948004;28;20283;-69
2021/12/24 12:01:14;;;;;;;11.95;5.68;;;;;;;;;;4953824;28;20034;-69
2021/12/24 12:03:45;;;;;;;11.18;5.32;;;;;;;;;;4937314;28;20042;-69
2021/12/24 12:06:31;;;;;;;15.70;5.65;;;;;;;;;;4946051;28;20069;-69
2021/12/24 12:09:01;;;;;;;14.25;5.50;;;;;;;;;;5011523;28;20033;-69
2021/12/24 12:11:30;;;;;;;10.85;4.25;;;;;;;;;;4998280;28;20071;-69
2021/12/24 12:14:04;;;;;;;11.18;4.40;;;;;;;;;;5017308;28;20021;-69
2021/12/24 12:16:44;;;;;;;13.13;5.43;;;;;;;;;;5013303;28;20103;-70
2021/12/24 12:19:32;;;;;;;14.40;5.72;;;;;;;;;;5014599;28;20068;-70
2021/12/24 12:25:12;;;;;;;13.18;5.13;;;;;;;;;;5014815;28;20049;-70
2021/12/24 12:28:00;;;;;;;14.07;5.13;;;;;;;;;;5013002;28;20131;-70
2021/12/24 12:30:29;;;;;;;11.77;5.07;;;;;;;;;;4995034;28;20704;-70
2021/12/24 12:33:13;;;;;;;13.80;5.75;;;;;;;;;;5015262;28;20025;-70
2021/12/24 12:35:43;;;;;;;12.93;5.50;;;;;;;;;;5010269;28;20118;-70
2021/12/24 12:38:46;;;;;;;17.40;6.57;;;;;;;;;;5013918;28;20672;-70
2021/12/24 12:41:34;;;;;;;15.25;6.82;;;;;;;;;;4935192;28;20560;-70
2021/12/24 12:44:02;;;;;;;15.13;6.90;;;;;;;;;;4937402;28;20131;-71
2021/12/24 12:46:32;;;;;;;16.70;7.25;;;;;;;;;;4932788;28;20037;-69
2021/12/24 12:49:06;;;;;;;15.98;8.25;;;;;;;;;;4926454;28;20035;-70
2021/12/24 12:51:53;;;;;;;15.45;7.45;;;;;;;;;;4936120;28;20190;-71
2021/12/24 12:54:37;;;;;;;19.45;8.70;;;;;;;;;;4936879;28;20063;-70
2021/12/24 12:57:23;;;;;;;15.07;7.10;;;;;;;;;;4940936;28;20098;-70
2021/12/24 13:00:18;;;;;;;15.40;7.97;;;;;;;;;;4939616;28;20034;-70
2021/12/24 13:03:08;;;;;;;16.48;9.93;;;;;;;;;;4931237;28;20169;-69
2021/12/24 13:05:41;;;;;;;21.98;10.82;;;;;;;;;;4934897;28;20041;-71
2021/12/24 13:08:26;;;;;;;20.10;9.98;;;;;;;;;;4942041;28;20035;-70
2021/12/24 13:11:12;;;;;;;21.25;9.18;;;;;;;;;;4942524;28;20160;-70
2021/12/24 13:14:03;;;;;;;21.42;10.40;;;;;;;;;;4921825;28;20041;-69
2021/12/24 13:16:42;;;;;;;20.05;10.30;;;;;;;;;;4958148;28;20072;-69
2021/12/24 13:24:53;;;;;;;19.38;9.82;;;;;;;;;;5009360;28;20056;-70
2021/12/24 13:27:25;;;;;;;17.38;8.95;;;;;;;;;;5018281;28;20128;-70
2021/12/24 13:30:13;;;;;;;19.85;10.57;;;;;;;;;;4987628;28;20052;-70
2021/12/24 13:32:45;;;;;;;17.85;9.45;;;;;;;;;;5011931;28;20147;-70
2021/12/24 13:35:13;;;;;;;16.00;8.85;;;;;;;;;;5020623;28;20534;-69
2021/12/24 13:37:45;;;;;;;26.00;15.40;;;;;;;;;;4995364;28;20095;-70
2021/12/24 13:40:20;;;;;;;17.77;8.75;;;;;;;;;;5004348;28;20056;-74
2021/12/24 13:42:57;;;;;;;19.00;10.02;;;;;;;;;;5018792;28;20056;-73
2021/12/24 13:45:27;;;;;;;22.38;9.45;;;;;;;;;;5022532;28;20025;-74
2021/12/24 13:48:03;;;;;;;18.15;9.35;;;;;;;;;;5020955;28;20112;-73
2021/12/24 13:56:07;;;;;;;20.38;11.07;;;;;;;;;;5025144;28;20552;-74
2021/12/24 13:58:35;;;;;;;19.25;9.38;;;;;;;;;;4976012;28;20041;-74
2021/12/24 14:01:06;;;;;;;16.08;8.45;;;;;;;;;;5000388;28;20045;-74
2021/12/24 14:03:38;;;;;;;18.42;9.50;;;;;;;;;;5014008;28;21471;-73
2021/12/24 14:06:06;;;;;;;22.25;8.77;;;;;;;;;;5018654;28;20041;-74
2021/12/24 14:08:37;;;;;;;20.80;9.10;;;;;;;;;;5001111;28;20029;-73
2021/12/24 14:11:08;;;;;;;19.67;9.15;;;;;;;;;;5018815;28;20033;-73
2021/12/24 14:13:44;;;;;;;18.15;8.43;;;;;;;;;;4992056;28;20807;-74
2021/12/24 14:16:28;;;;;;;19.42;8.38;;;;;;;;;;4979473;28;20452;-74
2021/12/24 14:19:17;;;;;;;18.45;9.20;;;;;;;;;;4989228;28;20140;-74
2021/12/24 14:21:50;;;;;;;19.85;9.15;;;;;;;;;;5006060;28;20041;-73
2021/12/24 14:24:25;;;;;;;20.90;9.07;;;;;;;;;;5019306;28;20056;-73
2021/12/24 14:27:22;;;;;;;18.40;8.65;;;;;;;;;;5014007;28;20033;-74
2021/12/24 14:29:56;;;;;;;20.85;9.38;;;;;;;;;;4949738;28;20176;-73
2021/12/24 14:32:34;;;;;;;21.27;10.35;;;;;;;;;;4959779;28;20066;-73
2021/12/24 14:35:23;;;;;;;18.15;8.57;;;;;;;;;;4953515;28;20042;-73
2021/12/24 14:38:17;;;;;;;23.55;10.07;;;;;;;;;;4953905;28;20034;-73
2021/12/24 14:40:46;;;;;;;18.58;9.45;;;;;;;;;;4952386;28;20202;-73
2021/12/24 14:43:17;;;;;;;20.83;10.95;;;;;;;;;;4939114;28;20034;-74
2021/12/24 14:45:46;;;;;;;18.90;10.50;;;;;;;;;;4952310;28;20048;-75
2021/12/24 14:48:24;;;;;;;23.10;12.18;;;;;;;;;;4957969;28;20034;-73
2021/12/24 14:51:04;;;;;;;22.17;11.50;;;;;;;;;;4953465;28;21011;-73
2021/12/24 14:53:46;;;;;;;21.23;10.15;;;;;;;;;;4952981;28;20162;-74
2021/12/24 14:56:16;;;;;;;21.33;9.88;;;;;;;;;;4941284;28;20034;-73
2021/12/24 14:58:50;;;;;;;17.05;8.73;;;;;;;;;;4949204;28;20104;-73
2021/12/24 15:01:26;;;;;;;21.45;9.32;;;;;;;;;;4956703;28;20040;-75
2021/12/24 15:03:54;;;;;;;23.38;10.23;;;;;;;;;;4952570;28;20050;-72
2021/12/24 15:06:27;;;;;;;21.75;10.23;;;;;;;;;;4985357;28;20045;-73
2021/12/24 15:08:58;;;;;;;21.17;10.73;;;;;;;;;;5020328;28;20021;-73
2021/12/24 15:11:29;;;;;;;20.55;10.70;;;;;;;;;;4993976;28;20038;-73
2021/12/24 15:14:01;;;;;;;19.33;10.18;;;;;;;;;;4998872;28;20052;-73
2021/12/24 15:16:30;;;;;;;21.10;10.50;;;;;;;;;;4997064;28;20715;-73
2021/12/24 15:19:01;;;;;;;20.80;10.57;;;;;;;;;;5010883;28;20040;-73
2021/12/24 15:21:29;;;;;;;18.83;10.90;;;;;;;;;;4982121;28;20028;-73
2021/12/24 15:23:59;;;;;;;24.75;14.27;;;;;;;;;;4995357;28;20056;-74
2021/12/24 15:26:27;;;;;;;23.58;13.15;;;;;;;;;;4999548;28;20032;-74
2021/12/24 15:28:58;;;;;;;25.77;13.85;;;;;;;;;;5017537;28;20112;-74
2021/12/24 15:31:27;;;;;;;25.63;13.52;;;;;;;;;;5011171;28;20144;-74
2021/12/24 15:33:56;;;;;;;23.02;10.52;;;;;;;;;;4992159;28;20037;-73
2021/12/24 15:36:25;;;;;;;25.65;12.52;;;;;;;;;;5008361;28;20032;-74
2021/12/24 15:38:54;;;;;;;28.05;13.00;;;;;;;;;;4993882;28;20114;-73
2021/12/24 15:41:22;;;;;;;26.80;13.75;;;;;;;;;;5012649;28;20573;-74
2021/12/24 15:43:51;;;;;;;23.05;12.57;;;;;;;;;;4974266;28;20064;-73
2021/12/24 15:46:21;;;;;;;25.27;12.68;;;;;;;;;;4989078;28;20036;-74
2021/12/24 15:48:50;;;;;;;24.77;13.80;;;;;;;;;;5005301;28;20033;-73
2021/12/24 15:51:19;;;;;;;29.38;14.27;;;;;;;;;;4995791;28;20076;-73
2021/12/24 15:53:48;;;;;;;35.20;18.65;;;;;;;;;;5008251;28;20025;-73
2021/12/24 15:56:17;;;;;;;26.85;15.73;;;;;;;;;;5005325;28;20124;-73
2021/12/24 15:58:45;;;;;;;23.52;14.50;;;;;;;;;;5003513;28;20040;-73
2021/12/24 16:01:13;;;;;;;28.80;16.35;;;;;;;;;;5008824;28;20824;-73
2021/12/24 16:03:42;;;;;;;29.23;16.20;;;;;;;;;;4992832;28;20469;-72
2021/12/24 16:06:09;;;;;;;36.78;17.88;;;;;;;;;;5010320;28;20051;-72
2021/12/24 16:08:36;;;;;;;30.10;16.65;;;;;;;;;;4990151;28;20593;-73
2021/12/24 16:11:05;;;;;;;33.20;17.92;;;;;;;;;;4990402;28;20022;-72
2021/12/24 16:13:36;;;;;;;36.00;19.83;;;;;;;;;;5007743;28;20712;-72
2021/12/24 16:16:06;;;;;;;32.03;18.48;;;;;;;;;;5009714;28;20087;-72
2021/12/24 16:18:35;;;;;;;32.08;18.67;;;;;;;;;;4981967;28;20061;-73
2021/12/24 16:21:02;;;;;;;38.70;19.98;;;;;;;;;;4996415;28;20029;-72
2021/12/24 16:23:33;;;;;;;31.30;20.08;;;;;;;;;;4957846;28;20454;-72
2021/12/24 16:26:01;;;;;;;33.25;19.05;;;;;;;;;;4994259;28;20034;-74
2021/12/24 16:28:27;;;;;;;32.53;20.10;;;;;;;;;;4978788;28;20021;-73
2021/12/24 16:30:55;;;;;;;43.10;25.77;;;;;;;;;;4996212;28;20021;-72
2021/12/24 16:33:22;;;;;;;35.40;21.25;;;;;;;;;;5002755;28;20116;-72
2021/12/24 16:35:51;;;;;;;37.55;23.65;;;;;;;;;;4994418;28;21410;-72
2021/12/24 16:38:19;;;;;;;38.03;24.33;;;;;;;;;;5005318;28;20121;-72
2021/12/24 16:40:46;;;;;;;36.25;22.70;;;;;;;;;;4997429;28;20022;-73
2021/12/24 16:43:37;;;;;;;42.17;24.27;;;;;;;;;;5002180;28;20159;-73
2021/12/24 16:46:05;;;;;;;41.95;25.40;;;;;;;;;;5003306;28;20029;-72